Michipicoten — CFG8060 — position and weather

sailwx.info

Track history (hours):
 
Tides and Currents Weather Stations Pressure Air Temp Water Temp Dewpoint Dewpoint Depression Visibility Wind Speed Wind Dir Waves Ship Positions

Michipicoten

Last reported at 2016-Dec-24 08:32 UTC. Time now 2017-Mar-25 03:59 UTC.
Position N 43°13' W 079°13'.
Warning: this ship's position is months out of date.

Length 213 m; draft 5.4 m.

Type: Cargo ship. MMSI: 316002501.

Date/timePositionNaut miles runAvg speedWind from/ knotsBaromVisibWave heightAir tempDewpointWater temp
2016-Dec-24 08:32N 43°13' W 079°13'0 0.4
2016-Dec-24 07:33N 43°13' W 079°13'0 0.3
2016-Dec-24 06:33N 43°14' W 079°13'249 9.5
2016-Dec-23 04:17N 45°14' W 074°09'6 8.7
2016-Dec-23 03:33N 45°14' W 074°00'5 5.5
2016-Dec-23 02:33N 45°18' W 073°56'1 0.8
2016-Dec-23 01:33N 45°19' W 073°55'1 0.9
2016-Dec-23 00:33N 45°20' W 073°55'8 8.3
2016-Dec-22 23:33N 45°24' W 073°45'6 5.7
2016-Dec-22 22:32N 45°24' W 073°36'3 2.5
2016-Dec-22 21:20N 45°24' W 073°32'4 5.1
2016-Dec-22 20:31N 45°29' W 073°31'1 1.5
2016-Dec-22 19:32N 45°30' W 073°31'  
2016-Dec-18 04:31N 45°29' W 073°31'4 4.4
2016-Dec-18 03:30N 45°24' W 073°33'1 1.3
2016-Dec-18 02:32N 45°24' W 073°34'3 2.9
2016-Dec-18 01:33N 45°24' W 073°38'6 6.3
2016-Dec-18 00:33N 45°24' W 073°47'7 7.3
2016-Dec-17 23:33N 45°19' W 073°55'1 0.8
2016-Dec-17 22:33N 45°18' W 073°56'0 0.1
2016-Dec-17 21:33N 45°18' W 073°56'3 2.9
2016-Dec-17 20:33N 45°16' W 073°58'8 8.2
2016-Dec-17 19:33N 45°14' W 074°09'249 9.8
2016-Dec-16 18:13N 43°13' W 079°13'  
Track history (hours):
 
Tides and Currents Weather Stations Pressure Air Temp Water Temp Dewpoint Dewpoint Depression Visibility Wind Speed Wind Dir Waves Ship Positions

Michipicoten

Last reported at 2016-Dec-24 08:32 UTC. Time now 2017-Mar-25 03:59 UTC.
Position N 43°13' W 079°13'.
Warning: this ship's position is months out of date.

Length 213 m; draft 5.4 m.

Type: Cargo ship. MMSI: 316002501.

Date/timePositionNaut miles runAvg speedWind from/ knotsBaromVisibWave heightAir tempDewpointWater temp
2016-Dec-24 08:32N 43°13' W 079°13'0 0.4
2016-Dec-24 07:33N 43°13' W 079°13'0 0.3
2016-Dec-24 06:33N 43°14' W 079°13'249 9.5
2016-Dec-23 04:17N 45°14' W 074°09'6 8.7
2016-Dec-23 03:33N 45°14' W 074°00'5 5.5
2016-Dec-23 02:33N 45°18' W 073°56'1 0.8
2016-Dec-23 01:33N 45°19' W 073°55'1 0.9
2016-Dec-23 00:33N 45°20' W 073°55'8 8.3
2016-Dec-22 23:33N 45°24' W 073°45'6 5.7
2016-Dec-22 22:32N 45°24' W 073°36'3 2.5
2016-Dec-22 21:20N 45°24' W 073°32'4 5.1
2016-Dec-22 20:31N 45°29' W 073°31'1 1.5
2016-Dec-22 19:32N 45°30' W 073°31'  
2016-Dec-18 04:31N 45°29' W 073°31'4 4.4
2016-Dec-18 03:30N 45°24' W 073°33'1 1.3
2016-Dec-18 02:32N 45°24' W 073°34'3 2.9
2016-Dec-18 01:33N 45°24' W 073°38'6 6.3
2016-Dec-18 00:33N 45°24' W 073°47'7 7.3
2016-Dec-17 23:33N 45°19' W 073°55'1 0.8
2016-Dec-17 22:33N 45°18' W 073°56'0 0.1
2016-Dec-17 21:33N 45°18' W 073°56'3 2.9
2016-Dec-17 20:33N 45°16' W 073°58'8 8.2
2016-Dec-17 19:33N 45°14' W 074°09'249 9.8
2016-Dec-16 18:13N 43°13' W 079°13'  

Dump ship's entire track history